Detall de PIREP

Printer-friendly versionPDF version

[2010/11/19 10:19:00]
Flight IATA:CT2100
Pilot Number:042
Company ICAO:CAT
Aircraft Type:B763/F
PAX:100
Departing Airport: LEVC
Destination Airport: LEAS
Alternate Airport:LEMD
Online: VATSIM
Route:CENTA/N380F230 A33 PRADO/N470F330 UN733 ZMR UM30 ROVAK R107 XONDA
Flight Level:FL330
No Slew and time accel
No pause
Crash detect
Detect pilot in Cockpit between each 30 and 45 minutes
10:19 Zero fuel Weight: 244975 Lbs, Fuel Weight: 161073 Lbs
10:19 VATSIM:LEVC 191000Z VRB02KT CAVOK 10/05 Q1019 NOSIG
10:19 VATSIM:LEAS 191000Z 24003KT 210V290 9000 BKN060 11/06 Q1011 NOSIG
10:19 VOICE CATALONIAN
10:19 Parking Brakes off
10:21 Take-off
10:21 Take off Weight: 404785 Lbs
10:21 Wind: 003 @ 002 Knots Heading: 297
10:21 POS N39 29 31 W000 29 19
10:21 Gear Up: 183 Knots
10:21 Flaps:3 at 183 Knots
10:21 Flaps:2 at 188 Knots
10:22 Flaps:1 at 215 Knots
10:23 Flaps:0 at 232 Knots
10:36 Wind:259@067 Knots Heading: 293 Ground Speed: 401 Knots Altitude 32700 ft
10:36 TOC
10:36 Fuel Weight: 152051 Lb
10:51 Wind:250@049 Knots Heading: 291 Ground Speed: 407 Knots Altitude 33116 ft
11:03 TOD
11:03 Fuel Weight: 146624 Lb
11:06 Wind:234@033 Knots Heading: 347 Ground Speed: 398 Knots Altitude 27598 ft
11:20 Flaps:1 at 229 Knots
11:21 Wind:228@027 Knots Heading: 347 Ground Speed: 269 Knots Altitude 7506 ft
11:22 Flaps:2 at 232 Knots
11:24 Flaps:3 at 185 Knots
11:25 Flaps:4 at 173 Knots
11:25 Gear Down: 156 Knots
11:26 Flaps:5 at 155 Knots
11:26 Flaps:6 at 158 Knots
11:30 TouchDown:Rate -162 ft/min Speed: 134 Knots
11:30 VATSIM:LEAS 191100Z VRB01KT 8000 DZ SCT054 BKN060 11/08 Q1011 NOSIG
11:30 Land
11:30 Wind:005@001 Knots
11:30 Heading: 288
11:30 Flight Duration: 01:09
11:30 Landing Weight: 387822 Lbs
11:30 POS N43 33 54 W006 02 28
11:34 Parking brakes on
11:34 Block to Block Duration: 01:15
11:34 Final Fuel: 142017 Lbls
11:34 Spent Fuel: 19056 Lbls
11:34 Flight Length: 398 NM
11:34 TOD Land Length: 130 NM

Exportar CSV

Powered by Drupal - Modified by Danger4k